createdAt,value
2022-10-20T00:01:01.715Z,100850.72
2022-10-20T00:03:50.640Z,100850.09
2022-10-20T00:06:38.505Z,100861.16
2022-10-20T00:09:26.542Z,100854.58
2022-10-20T00:12:15.454Z,100856.84
2022-10-20T00:15:04.117Z,100868.73
2022-10-20T00:17:52.365Z,100875.50
2022-10-20T00:20:41.736Z,100873.23
2022-10-20T00:23:29.740Z,100861.31
2022-10-20T00:26:20.138Z,100862.55
2022-10-20T00:29:08.115Z,100877.33
2022-10-20T00:31:56.035Z,100872.58
2022-10-20T00:34:44.049Z,100873.81
2022-10-20T00:37:34.313Z,100869.91
2022-10-20T00:40:22.077Z,100877.47
2022-10-20T00:43:14.799Z,100889.55
2022-10-20T00:46:02.873Z,100889.33
2022-10-20T00:48:55.141Z,100887.06
2022-10-20T00:51:44.568Z,100886.02
2022-10-20T00:54:33.683Z,100897.09
2022-10-20T00:57:22.254Z,100896.86
2022-10-20T01:00:11.955Z,100892.10
2022-10-20T01:03:02.429Z,100882.05
2022-10-20T01:05:50.303Z,100886.93
2022-10-20T01:08:39.193Z,100896.55
2022-10-20T01:11:36.850Z,100890.98
2022-10-20T01:14:37.690Z,100886.86
2022-10-20T01:17:38.380Z,100884.80
2022-10-20T01:21:04.795Z,100897.49
2022-10-20T01:24:21.049Z,100899.53
2022-10-20T01:27:33.358Z,100901.56
2022-10-20T01:30:23.745Z,100902.77
2022-10-20T01:33:21.775Z,100908.30
2022-10-20T01:36:18.228Z,100912.80
2022-10-20T01:39:13.286Z,100908.69
2022-10-20T01:42:07.845Z,100908.87
2022-10-20T01:44:59.806Z,100912.55
2022-10-20T01:47:51.049Z,100908.45
2022-10-20T01:50:45.149Z,100909.64
2022-10-20T01:53:31.835Z,100913.53
2022-10-20T01:56:35.118Z,100920.02
2022-10-20T01:59:41.088Z,100922.27
2022-10-20T02:02:42.553Z,100931.45
2022-10-20T02:05:46.661Z,100930.02
2022-10-20T02:08:42.998Z,100927.73
2022-10-20T02:11:38.049Z,100935.09
2022-10-20T02:14:26.756Z,100946.13
2022-10-20T02:17:16.866Z,100945.67
2022-10-20T02:20:08.815Z,100937.43
2022-10-20T02:23:00.167Z,100950.95
2022-10-20T02:25:52.706Z,100948.03
2022-10-20T02:28:45.067Z,100957.59
2022-10-20T02:31:33.263Z,100952.22
2022-10-20T02:34:21.278Z,100951.12
2022-10-20T02:37:09.746Z,100957.02
2022-10-20T02:39:58.356Z,100954.10
2022-10-20T02:42:46.395Z,100957.52
2022-10-20T02:45:35.603Z,100964.39
2022-10-20T02:48:23.929Z,100965.78
2022-10-20T02:51:12.940Z,100975.15
2022-10-20T02:54:01.113Z,100982.86
2022-10-20T02:56:49.032Z,100979.13
2022-10-20T02:59:37.448Z,100976.20
2022-10-20T03:02:25.333Z,100975.09
2022-10-20T03:05:13.852Z,100978.31
2022-10-20T03:08:01.895Z,100985.38
2022-10-20T03:10:51.123Z,100988.77
2022-10-20T03:13:39.165Z,100988.02
2022-10-20T03:16:27.610Z,100997.73
2022-10-20T03:19:15.966Z,100991.22
2022-10-20T03:22:05.035Z,100998.71
2022-10-20T03:24:53.597Z,101010.88
2022-10-20T03:27:41.988Z,101016.91
2022-10-20T03:30:30.584Z,101022.94
2022-10-20T03:33:19.309Z,101023.82
2022-10-20T03:36:08.964Z,101019.22
2022-10-20T03:38:57.413Z,101024.23
2022-10-20T03:41:45.277Z,101025.95
2022-10-20T03:44:33.455Z,101035.28
2022-10-20T03:47:21.580Z,101029.67
2022-10-20T03:50:10.517Z,101037.18
2022-10-20T03:52:58.293Z,101035.04
2022-10-20T03:55:46.798Z,101045.20
2022-10-20T03:58:35.285Z,101051.02
2022-10-20T04:01:28.836Z,101050.91
2022-10-20T04:04:19.031Z,101051.11
2022-10-20T04:07:07.392Z,101056.30
2022-10-20T04:09:56.243Z,101053.16
2022-10-20T04:12:44.999Z,101052.03
2022-10-20T04:15:35.854Z,101055.19
2022-10-20T04:18:24.063Z,101063.68
2022-10-20T04:21:11.998Z,101060.87
2022-10-20T04:24:00.198Z,101076.47
2022-10-20T04:29:45.715Z,101081.33
2022-10-20T04:32:34.038Z,101090.96
2022-10-20T04:35:22.664Z,101102.58
2022-10-20T04:38:10.673Z,101098.95
2022-10-20T04:41:04.274Z,101110.38
2022-10-20T04:43:54.248Z,101106.25
2022-10-20T04:46:42.457Z,101110.56
2022-10-20T04:49:30.652Z,101103.94
2022-10-20T04:52:20.314Z,101101.44
2022-10-20T04:55:09.987Z,101108.40
2022-10-20T04:57:58.461Z,101112.70
2022-10-20T05:00:46.541Z,101124.95
2022-10-20T05:03:35.813Z,101131.09
2022-10-20T05:06:26.324Z,101139.05
2022-10-20T05:09:15.860Z,101157.75
2022-10-20T05:12:04.358Z,101160.73
2022-10-20T05:14:52.543Z,101169.16
2022-10-20T05:17:40.519Z,101178.56
2022-10-20T05:20:30.946Z,101183.72
2022-10-20T05:23:21.641Z,101181.73
2022-10-20T05:26:14.276Z,101173.31
2022-10-20T05:29:05.592Z,101161.39
2022-10-20T05:31:53.496Z,101162.39
2022-10-20T05:34:41.510Z,101168.87
2022-10-20T05:37:29.569Z,101181.45
2022-10-20T05:40:21.455Z,101184.44
2022-10-20T05:43:09.545Z,101196.37
2022-10-20T05:45:57.687Z,101194.05
2022-10-20T05:48:45.730Z,101204.81
2022-10-20T05:51:36.470Z,101202.67
2022-10-20T05:54:24.844Z,101212.76
2022-10-20T05:57:12.846Z,101209.63
2022-10-20T06:00:01.277Z,101215.07
2022-10-20T06:02:59.547Z,101215.25
2022-10-20T06:05:47.676Z,101216.05
2022-10-20T06:08:38.907Z,101215.22
2022-10-20T06:11:29.788Z,101224.83
2022-10-20T06:14:18.818Z,101224.63
2022-10-20T06:17:07.921Z,101237.72
2022-10-20T06:19:55.614Z,101247.13
2022-10-20T06:22:44.204Z,101245.77
2022-10-20T06:25:33.644Z,101248.70
2022-10-20T06:28:23.797Z,101250.82
2022-10-20T06:31:14.402Z,101249.44
2022-10-20T06:34:05.580Z,101248.23
2022-10-20T06:36:55.180Z,101255.80
2022-10-20T06:39:45.237Z,101254.78
2022-10-20T06:42:35.243Z,101253.08
2022-10-20T06:45:23.883Z,101260.00
2022-10-20T06:48:14.700Z,101260.09
2022-10-20T06:51:31.178Z,101264.55
2022-10-20T06:54:22.439Z,101262.19
2022-10-20T06:57:10.846Z,101267.44
2022-10-20T06:59:59.646Z,101281.03
2022-10-20T07:02:50.786Z,101287.30
2022-10-20T07:05:47.988Z,101286.74
2022-10-20T07:08:42.627Z,101284.20
2022-10-20T07:11:32.062Z,101286.15
2022-10-20T07:14:22.725Z,101277.80
2022-10-20T07:17:10.835Z,101290.75
2022-10-20T07:19:59.277Z,101298.83
2022-10-20T07:22:49.122Z,101303.43
2022-10-20T07:25:38.150Z,101309.88
2022-10-20T07:28:29.780Z,101311.17
2022-10-20T07:31:21.077Z,101311.45
2022-10-20T07:34:24.435Z,101310.73
2022-10-20T07:37:15.026Z,101318.16
2022-10-20T07:51:06.673Z,101327.68
2022-10-20T07:54:17.649Z,101335.21
2022-10-20T07:57:06.574Z,101340.72
2022-10-20T07:59:55.081Z,101343.45
2022-10-20T08:02:46.806Z,101343.17
2022-10-20T08:05:41.968Z,101336.25
2022-10-20T08:08:30.951Z,101343.97
2022-10-20T08:11:20.393Z,101342.20
2022-10-20T08:14:08.573Z,101344.30
2022-10-20T08:16:56.964Z,101347.43
2022-10-20T08:22:49.629Z,101345.54
2022-10-20T08:25:40.985Z,101345.03
2022-10-20T08:28:31.884Z,101348.01
2022-10-20T08:31:21.417Z,101348.92
2022-10-20T08:34:10.526Z,101350.62
2022-10-20T08:36:59.624Z,101350.52
2022-10-20T08:39:48.196Z,101354.70
2022-10-20T08:42:44.992Z,101360.53
2022-10-20T08:45:38.393Z,101360.00
2022-10-20T08:48:32.481Z,101361.33
2022-10-20T08:51:24.527Z,101365.50
2022-10-20T08:54:16.525Z,101361.44
2022-10-20T08:57:15.543Z,101362.30
2022-10-20T09:03:31.780Z,101372.67
2022-10-20T09:06:20.905Z,101369.03
2022-10-20T09:09:28.364Z,101369.48
2022-10-20T09:12:20.284Z,101370.56
2022-10-20T09:15:12.105Z,101379.07
2022-10-20T09:21:45.260Z,101380.58
2022-10-20T09:24:51.903Z,101383.48
2022-10-20T09:27:58.022Z,101386.59
2022-10-20T09:30:46.717Z,101385.80
2022-10-20T09:33:36.733Z,101389.52
2022-10-20T09:36:30.958Z,101380.65
2022-10-20T09:39:23.111Z,101388.06
2022-10-20T09:42:19.354Z,101393.84
2022-10-20T09:45:16.648Z,101386.61
2022-10-20T09:48:19.114Z,101391.82
2022-10-20T09:51:17.219Z,101387.66
2022-10-20T09:54:15.976Z,101391.58
2022-10-20T09:57:17.550Z,101385.77
2022-10-20T10:00:19.187Z,101385.11
2022-10-20T10:03:21.083Z,101388.59
2022-10-20T10:06:40.833Z,101392.48
2022-10-20T10:17:32.849Z,101386.16
2022-10-20T10:48:23.431Z,101353.80
2022-10-20T11:01:43.107Z,101339.78
2022-10-20T12:15:01.763Z,101288.45
2022-10-20T12:33:48.615Z,101278.65
2022-10-20T12:37:39.222Z,101279.45
2022-10-20T12:44:09.634Z,101271.16
2022-10-20T12:47:08.580Z,101265.31
2022-10-20T12:50:01.684Z,101275.50
2022-10-20T12:52:52.367Z,101268.69
2022-10-20T12:55:44.665Z,101275.37
2022-10-20T12:58:36.020Z,101269.14
2022-10-20T13:01:24.214Z,101260.02
2022-10-20T13:08:29.931Z,101268.55
2022-10-20T13:11:53.969Z,101266.32
2022-10-20T13:14:53.245Z,101280.03
2022-10-20T13:17:54.339Z,101281.08
2022-10-20T13:20:48.863Z,101272.87
2022-10-20T13:23:40.841Z,101270.39
2022-10-20T13:26:35.100Z,101275.42
2022-10-20T13:29:31.755Z,101265.67
2022-10-20T13:32:28.656Z,101266.97
2022-10-20T13:35:26.110Z,101258.30
2022-10-20T13:38:20.385Z,101258.30
2022-10-20T13:41:18.525Z,101256.42
2022-10-20T13:44:22.497Z,101258.77
2022-10-20T13:47:27.770Z,101270.58
2022-10-20T13:50:22.538Z,101272.30
2022-10-20T13:53:22.778Z,101265.97
2022-10-20T13:56:34.837Z,101270.16
2022-10-20T13:59:34.268Z,101280.55
2022-10-20T14:02:33.124Z,101273.38
2022-10-20T14:05:31.245Z,101273.23
2022-10-20T14:08:25.915Z,101279.52
2022-10-20T14:11:17.729Z,101278.78
2022-10-20T14:14:07.209Z,101275.55
2022-10-20T14:16:59.782Z,101269.43
2022-10-20T14:20:08.727Z,101263.30
2022-10-20T14:23:02.649Z,101261.12
2022-10-20T14:25:58.070Z,101260.81
2022-10-20T14:28:51.321Z,101261.94
2022-10-20T14:31:40.721Z,101263.47
2022-10-20T14:34:31.955Z,101258.62
2022-10-20T14:37:33.417Z,101261.79
2022-10-20T14:40:24.414Z,101261.86
2022-10-20T14:43:18.760Z,101262.94
2022-10-20T14:46:10.976Z,101260.73
2022-10-20T14:48:59.469Z,101261.80
2022-10-20T14:51:57.671Z,101265.59
2022-10-20T14:54:47.670Z,101265.02
2022-10-20T14:57:45.030Z,101265.50
2022-10-20T15:00:37.166Z,101263.88
2022-10-20T15:03:25.226Z,101271.37
2022-10-20T15:06:17.980Z,101276.99
2022-10-20T15:09:07.391Z,101272.91
2022-10-20T15:11:56.341Z,101276.87
2022-10-20T15:14:46.970Z,101281.44
2022-10-20T15:17:38.439Z,101283.52
2022-10-20T15:20:32.428Z,101282.94
2022-10-20T15:23:23.081Z,101288.69
2022-10-20T15:26:14.263Z,101285.40
2022-10-20T15:29:04.301Z,101287.48
2022-10-20T15:31:53.151Z,101285.03
2022-10-20T15:34:41.551Z,101281.11
2022-10-20T15:37:29.919Z,101289.36
2022-10-20T15:40:20.260Z,101292.66
2022-10-20T15:43:12.954Z,101289.57
2022-10-20T15:46:01.258Z,101297.00
2022-10-20T15:48:49.867Z,101296.57
2022-10-20T15:51:40.664Z,101303.15
2022-10-20T15:54:29.289Z,101302.91
2022-10-20T15:57:17.646Z,101309.44
2022-10-20T16:00:08.176Z,101310.45
2022-10-20T16:02:57.567Z,101319.69
2022-10-20T16:05:47.470Z,101326.42
2022-10-20T16:08:35.703Z,101332.96
2022-10-20T16:11:39.784Z,101333.34
2022-10-20T16:14:28.517Z,101342.55
2022-10-20T16:17:26.580Z,101348.86
2022-10-20T16:20:16.151Z,101352.29
2022-10-20T16:23:04.303Z,101351.42
2022-10-20T16:25:52.711Z,101355.05
2022-10-20T16:28:40.781Z,101363.20
2022-10-20T16:31:29.454Z,101366.86
2022-10-20T16:34:17.346Z,101364.33
2022-10-20T16:37:05.333Z,101373.28
2022-10-20T16:39:53.301Z,101374.02
2022-10-20T16:42:42.392Z,101382.79
2022-10-20T16:45:31.454Z,101386.05
2022-10-20T16:48:19.230Z,101388.43
2022-10-20T16:51:09.884Z,101382.02
2022-10-20T16:54:03.316Z,101391.59
2022-10-20T16:56:52.173Z,101396.67
2022-10-20T16:59:42.310Z,101394.59
2022-10-20T17:02:31.109Z,101395.34
2022-10-20T17:05:26.355Z,101402.23
2022-10-20T17:08:15.609Z,101413.48
2022-10-20T17:11:07.161Z,101412.38
2022-10-20T17:13:58.219Z,101415.79
2022-10-20T17:16:48.390Z,101410.39
2022-10-20T17:19:37.348Z,101425.11
2022-10-20T17:22:25.694Z,101412.03
2022-10-20T17:25:14.127Z,101426.21
2022-10-20T17:28:02.443Z,101427.59
2022-10-20T17:30:52.573Z,101424.45
2022-10-20T17:33:41.826Z,101425.02
2022-10-20T17:36:31.910Z,101430.06
2022-10-20T17:39:21.489Z,101436.78
2022-10-20T17:42:09.423Z,101435.48
2022-10-20T17:44:58.283Z,101428.86
2022-10-20T17:47:47.456Z,101424.06
2022-10-20T17:50:35.649Z,101436.74
2022-10-20T17:53:24.058Z,101435.28
2022-10-20T17:56:14.249Z,101433.99
2022-10-20T17:59:07.025Z,101431.69
2022-10-20T18:01:55.951Z,101437.37
2022-10-20T18:04:45.080Z,101435.21
2022-10-20T18:07:33.601Z,101442.20
2022-10-20T18:10:22.981Z,101440.73
2022-10-20T18:13:11.438Z,101444.58
2022-10-20T18:16:00.110Z,101443.11
2022-10-20T18:18:49.461Z,101445.29
2022-10-20T18:21:37.664Z,101442.17
2022-10-20T18:24:25.610Z,101449.52
2022-10-20T18:27:14.318Z,101452.53
2022-10-20T18:30:02.362Z,101457.37
2022-10-20T18:32:51.670Z,101461.23
2022-10-20T18:35:40.446Z,101465.91
2022-10-20T18:38:28.693Z,101465.43
2022-10-20T18:41:19.190Z,101468.09
2022-10-20T18:44:11.451Z,101466.63
2022-10-20T18:47:00.212Z,101473.77
2022-10-20T18:49:48.993Z,101479.29
2022-10-20T18:52:37.233Z,101481.11
2022-10-20T18:55:25.742Z,101489.28
2022-10-20T18:58:18.931Z,101494.77
2022-10-20T19:01:09.656Z,101503.95
2022-10-20T19:03:59.489Z,101515.61
2022-10-20T19:06:48.898Z,101512.30
2022-10-20T19:09:37.040Z,101517.78
2022-10-20T19:12:25.553Z,101522.45
2022-10-20T19:15:13.589Z,101534.30
2022-10-20T19:18:01.850Z,101544.95
2022-10-20T19:20:58.329Z,101545.95
2022-10-20T19:23:50.627Z,101563.73
2022-10-20T19:26:41.784Z,101565.74
2022-10-20T19:29:30.439Z,101572.91
2022-10-20T19:32:18.787Z,101578.24
2022-10-20T19:35:09.433Z,101574.08
2022-10-20T19:37:57.252Z,101584.06
2022-10-20T19:40:45.436Z,101584.60
2022-10-20T19:43:34.794Z,101591.08
2022-10-20T19:46:24.270Z,101593.27
2022-10-20T19:49:13.716Z,101603.61
2022-10-20T19:52:02.318Z,101598.97
2022-10-20T19:54:51.014Z,101609.95
2022-10-20T19:57:40.007Z,101613.95
2022-10-20T20:00:28.369Z,101612.63
2022-10-20T20:03:17.626Z,101621.77
2022-10-20T20:06:09.113Z,101623.11
2022-10-20T20:09:00.138Z,101626.29
2022-10-20T20:11:48.476Z,101637.27
2022-10-20T20:14:36.608Z,101633.28
2022-10-20T20:17:24.961Z,101629.63
2022-10-20T20:20:13.423Z,101624.14
2022-10-20T20:23:01.841Z,101626.65
2022-10-20T20:25:51.406Z,101637.77
2022-10-20T20:28:39.788Z,101642.91
2022-10-20T20:31:29.963Z,101648.88
2022-10-20T20:34:21.014Z,101651.87
2022-10-20T20:37:09.002Z,101643.70
2022-10-20T20:39:57.800Z,101653.16
2022-10-20T20:42:46.400Z,101657.98
2022-10-20T20:45:34.266Z,101664.77
2022-10-20T20:48:22.781Z,101668.07
2022-10-20T20:51:13.538Z,101668.39
2022-10-20T20:54:02.240Z,101670.70
2022-10-20T20:56:50.236Z,101672.02
2022-10-20T20:59:38.370Z,101675.33
2022-10-20T21:02:26.447Z,101679.47
2022-10-20T21:05:15.826Z,101679.94
2022-10-20T21:08:03.711Z,101677.92
2022-10-20T21:10:52.426Z,101679.55
2022-10-20T21:13:41.770Z,101675.06
2022-10-20T21:16:32.648Z,101679.16
2022-10-20T21:19:21.454Z,101684.97
2022-10-20T21:22:11.549Z,101680.11
2022-10-20T21:24:59.841Z,101684.08
2022-10-20T21:27:48.393Z,101690.55
2022-10-20T21:30:39.485Z,101689.33
2022-10-20T21:33:27.651Z,101696.12
2022-10-20T21:36:18.113Z,101695.44
2022-10-20T21:39:11.506Z,101706.50
2022-10-20T21:41:59.743Z,101699.03
2022-10-20T21:44:49.516Z,101701.00
2022-10-20T21:47:37.878Z,101708.42
2022-10-20T21:50:26.392Z,101702.44
2022-10-20T21:53:15.094Z,101708.05
2022-10-20T21:56:03.507Z,101710.03
2022-10-20T21:58:52.980Z,101704.05
2022-10-20T22:01:40.971Z,101706.88
2022-10-20T22:04:30.590Z,101710.52
2022-10-20T22:07:18.668Z,101719.45
2022-10-20T22:10:08.373Z,101700.89
2022-10-20T22:12:56.525Z,101708.84
2022-10-20T22:15:44.734Z,101706.19
2022-10-20T22:18:33.370Z,101706.02
2022-10-20T22:21:32.771Z,101708.67
2022-10-20T22:24:21.770Z,101703.54
2022-10-20T22:27:15.697Z,101713.47
2022-10-20T22:30:16.182Z,101716.27
2022-10-20T22:33:04.177Z,101720.06
2022-10-20T22:35:52.132Z,101731.66
2022-10-20T22:38:40.535Z,101736.11
2022-10-20T22:41:28.351Z,101740.73
2022-10-20T22:44:16.747Z,101746.21
2022-10-20T22:47:04.890Z,101740.06
2022-10-20T22:49:52.992Z,101753.31
2022-10-20T22:52:41.436Z,101748.31
2022-10-20T22:55:30.050Z,101741.21
2022-10-20T22:58:20.852Z,101743.19
2022-10-20T23:01:11.550Z,101738.86
2022-10-20T23:04:00.616Z,101744.30
2022-10-20T23:06:49.070Z,101746.95
2022-10-20T23:09:40.087Z,101753.24
2022-10-20T23:12:28.669Z,101748.11
2022-10-20T23:15:16.792Z,101753.24
2022-10-20T23:18:04.709Z,101756.74
2022-10-20T23:20:57.418Z,101749.77
2022-10-20T23:23:46.923Z,101757.86
2022-10-20T23:26:35.594Z,101767.65
2022-10-20T23:29:23.734Z,101771.42
2022-10-20T23:32:12.104Z,101783.01
2022-10-20T23:35:00.154Z,101787.33
2022-10-20T23:37:48.265Z,101786.34
2022-10-20T23:40:36.168Z,101785.52
2022-10-20T23:43:26.603Z,101787.49
2022-10-20T23:46:15.447Z,101788.17
2022-10-20T23:49:04.650Z,101784.84
2022-10-20T23:51:53.245Z,101785.96
2022-10-20T23:54:41.376Z,101783.48
2022-10-20T23:57:29.438Z,101786.95
